sensor_id;sensor_type;location;lat;lon;timestamp;pressure;altitude;pressure_sealevel;temperature;humidity
37170;BME280;23062;13.952;100.608;2022-08-04T00:00:20;1007.57;;;29.69;100.00
37170;BME280;23062;13.952;100.608;2022-08-04T00:05:13;1007.60;;;29.68;100.00
37170;BME280;23062;13.952;100.608;2022-08-04T00:10:05;1007.64;;;29.69;100.00
37170;BME280;23062;13.952;100.608;2022-08-04T00:14:58;1007.68;;;29.70;100.00
37170;BME280;23062;13.952;100.608;2022-08-04T00:19:52;1007.71;;;29.71;100.00
37170;BME280;23062;13.952;100.608;2022-08-04T00:24:41;1007.69;;;29.72;100.00
37170;BME280;23062;13.952;100.608;2022-08-04T00:29:33;1007.70;;;29.72;100.00
37170;BME280;23062;13.952;100.608;2022-08-04T00:34:25;1007.64;;;29.72;100.00
37170;BME280;23062;13.952;100.608;2022-08-04T00:39:16;1007.67;;;29.71;100.00
37170;BME280;23062;13.952;100.608;2022-08-04T01:04:48;1007.66;;;29.65;100.00
37170;BME280;23062;13.952;100.608;2022-08-04T01:09:40;1007.69;;;29.69;98.18
37170;BME280;23062;13.952;100.608;2022-08-04T01:19:58;1007.86;;;29.72;97.00
37170;BME280;23062;13.952;100.608;2022-08-04T01:29:57;1007.97;;;29.67;99.28
37170;BME280;23062;13.952;100.608;2022-08-04T01:34:51;1007.95;;;29.71;97.59
37170;BME280;23062;13.952;100.608;2022-08-04T01:39:50;1007.94;;;29.77;96.35
37170;BME280;23062;13.952;100.608;2022-08-04T01:44:41;1007.97;;;29.83;95.84
37170;BME280;23062;13.952;100.608;2022-08-04T01:49:33;1008.00;;;29.89;94.51
37170;BME280;23062;13.952;100.608;2022-08-04T01:54:24;1007.99;;;29.87;93.85
37170;BME280;23062;13.952;100.608;2022-08-04T01:59:16;1008.05;;;29.85;93.68
37170;BME280;23062;13.952;100.608;2022-08-04T02:04:07;1008.02;;;29.87;91.23
37170;BME280;23062;13.952;100.608;2022-08-04T02:14:23;1007.95;;;29.89;87.88
37170;BME280;23062;13.952;100.608;2022-08-04T02:19:43;1008.01;;;29.97;86.79
37170;BME280;23062;13.952;100.608;2022-08-04T02:24:30;1007.99;;;30.02;83.97
37170;BME280;23062;13.952;100.608;2022-08-04T02:29:33;1008.05;;;30.04;83.00
37170;BME280;23062;13.952;100.608;2022-08-04T02:39:33;1008.08;;;30.13;82.45
37170;BME280;23062;13.952;100.608;2022-08-04T02:44:24;1008.06;;;30.13;81.58
37170;BME280;23062;13.952;100.608;2022-08-04T02:49:14;1008.06;;;30.14;81.34
37170;BME280;23062;13.952;100.608;2022-08-04T02:54:05;1008.04;;;30.20;80.79
37170;BME280;23062;13.952;100.608;2022-08-04T02:59:03;1007.99;;;30.24;79.97
37170;BME280;23062;13.952;100.608;2022-08-04T03:04:16;1007.98;;;30.21;80.30
37170;BME280;23062;13.952;100.608;2022-08-04T03:09:38;1007.94;;;30.25;79.60
37170;BME280;23062;13.952;100.608;2022-08-04T03:30:04;1007.92;;;30.42;78.56
37170;BME280;23062;13.952;100.608;2022-08-04T04:06:12;1007.48;;;30.58;79.26
37170;BME280;23062;13.952;100.608;2022-08-04T04:16:06;1007.44;;;30.62;78.28
37170;BME280;23062;13.952;100.608;2022-08-04T04:36:24;1007.53;;;30.79;77.44
37170;BME280;23062;13.952;100.608;2022-08-04T04:51:32;1007.44;;;30.94;75.59
37170;BME280;23062;13.952;100.608;2022-08-04T05:16:46;1007.36;;;31.07;74.25
37170;BME280;23062;13.952;100.608;2022-08-04T05:21:55;1007.36;;;31.13;73.82
37170;BME280;23062;13.952;100.608;2022-08-04T05:26:43;1007.28;;;31.19;72.66
37170;BME280;23062;13.952;100.608;2022-08-04T05:31:39;1007.17;;;31.24;72.33
37170;BME280;23062;13.952;100.608;2022-08-04T05:36:33;1007.04;;;31.11;72.62
37170;BME280;23062;13.952;100.608;2022-08-04T05:41:20;1007.06;;;31.12;72.74
37170;BME280;23062;13.952;100.608;2022-08-04T05:46:12;1006.97;;;31.22;72.04
37170;BME280;23062;13.952;100.608;2022-08-04T05:51:04;1006.92;;;31.26;72.39
37170;BME280;23062;13.952;100.608;2022-08-04T05:55:56;1006.94;;;31.31;71.95
37170;BME280;23062;13.952;100.608;2022-08-04T06:00:46;1006.88;;;31.35;71.76
37170;BME280;23062;13.952;100.608;2022-08-04T06:05:39;1006.80;;;31.26;72.46
37170;BME280;23062;13.952;100.608;2022-08-04T06:10:30;1006.75;;;31.34;72.13
37170;BME280;23062;13.952;100.608;2022-08-04T06:15:21;1006.66;;;31.33;72.57
37170;BME280;23062;13.952;100.608;2022-08-04T06:20:13;1006.57;;;31.33;72.72
37170;BME280;23062;13.952;100.608;2022-08-04T06:25:04;1006.59;;;31.31;73.18
37170;BME280;23062;13.952;100.608;2022-08-04T06:29:56;1006.48;;;31.36;73.12
37170;BME280;23062;13.952;100.608;2022-08-04T06:34:47;1006.41;;;31.32;73.06
37170;BME280;23062;13.952;100.608;2022-08-04T06:39:37;1006.41;;;31.33;73.15
37170;BME280;23062;13.952;100.608;2022-08-04T06:44:29;1006.35;;;31.35;73.41
37170;BME280;23062;13.952;100.608;2022-08-04T06:49:19;1006.23;;;31.34;73.49
37170;BME280;23062;13.952;100.608;2022-08-04T06:54:11;1006.15;;;31.29;73.29
37170;BME280;23062;13.952;100.608;2022-08-04T06:59:04;1006.03;;;31.28;73.18
37170;BME280;23062;13.952;100.608;2022-08-04T07:03:55;1005.91;;;31.36;72.86
37170;BME280;23062;13.952;100.608;2022-08-04T07:08:46;1005.80;;;31.34;72.31
37170;BME280;23062;13.952;100.608;2022-08-04T07:13:37;1005.68;;;31.32;71.99
37170;BME280;23062;13.952;100.608;2022-08-04T07:18:27;1005.58;;;31.31;71.90
37170;BME280;23062;13.952;100.608;2022-08-04T07:23:24;1005.58;;;31.33;72.06
37170;BME280;23062;13.952;100.608;2022-08-04T07:28:16;1005.47;;;31.33;72.18
37170;BME280;23062;13.952;100.608;2022-08-04T07:33:07;1005.37;;;31.36;72.08
37170;BME280;23062;13.952;100.608;2022-08-04T07:37:57;1005.32;;;31.42;71.87
37170;BME280;23062;13.952;100.608;2022-08-04T07:42:47;1005.26;;;31.42;71.96
37170;BME280;23062;13.952;100.608;2022-08-04T07:47:36;1005.22;;;31.38;71.94
37170;BME280;23062;13.952;100.608;2022-08-04T07:52:27;1005.06;;;31.40;71.72
37170;BME280;23062;13.952;100.608;2022-08-04T07:57:21;1004.96;;;31.41;71.75
37170;BME280;23062;13.952;100.608;2022-08-04T08:02:13;1004.88;;;31.45;71.29
37170;BME280;23062;13.952;100.608;2022-08-04T08:07:04;1004.73;;;31.47;71.42
37170;BME280;23062;13.952;100.608;2022-08-04T08:11:54;1004.62;;;31.51;71.09
37170;BME280;23062;13.952;100.608;2022-08-04T08:16:45;1004.55;;;31.56;70.71
37170;BME280;23062;13.952;100.608;2022-08-04T08:21:34;1004.53;;;31.51;70.63
37170;BME280;23062;13.952;100.608;2022-08-04T08:26:24;1004.44;;;31.44;70.96
37170;BME280;23062;13.952;100.608;2022-08-04T08:31:15;1004.41;;;31.54;70.51
37170;BME280;23062;13.952;100.608;2022-08-04T08:41:51;1004.25;;;31.61;69.86
37170;BME280;23062;13.952;100.608;2022-08-04T08:52:11;1004.14;;;31.59;70.57
37170;BME280;23062;13.952;100.608;2022-08-04T08:57:14;1004.08;;;31.63;70.49
37170;BME280;23062;13.952;100.608;2022-08-04T09:17:49;1003.96;;;31.65;70.05
37170;BME280;23062;13.952;100.608;2022-08-04T09:22:42;1003.97;;;31.71;69.57
37170;BME280;23062;13.952;100.608;2022-08-04T09:32:44;1003.90;;;31.94;68.74
37170;BME280;23062;13.952;100.608;2022-08-04T09:47:45;1003.81;;;31.87;69.20
37170;BME280;23062;13.952;100.608;2022-08-04T09:52:54;1003.85;;;31.70;70.42
37170;BME280;23062;13.952;100.608;2022-08-04T09:58:07;1003.78;;;31.65;70.87
37170;BME280;23062;13.952;100.608;2022-08-04T10:02:59;1003.78;;;31.69;70.16
37170;BME280;23062;13.952;100.608;2022-08-04T10:13:15;1003.91;;;31.66;70.05
37170;BME280;23062;13.952;100.608;2022-08-04T10:28:48;1004.82;;;31.51;69.13
37170;BME280;23062;13.952;100.608;2022-08-04T10:33:41;1005.05;;;31.23;70.95
37170;BME280;23062;13.952;100.608;2022-08-04T10:44:05;1005.19;;;30.93;76.04
37170;BME280;23062;13.952;100.608;2022-08-04T10:48:57;1005.31;;;30.86;77.16
37170;BME280;23062;13.952;100.608;2022-08-04T10:54:05;1005.33;;;30.75;77.91
37170;BME280;23062;13.952;100.608;2022-08-04T10:58:57;1005.23;;;30.74;78.93
37170;BME280;23062;13.952;100.608;2022-08-04T11:03:55;1005.14;;;30.73;81.23
37170;BME280;23062;13.952;100.608;2022-08-04T11:08:49;1005.10;;;30.69;81.75
37170;BME280;23062;13.952;100.608;2022-08-04T11:13:44;1005.14;;;30.72;82.78
37170;BME280;23062;13.952;100.608;2022-08-04T11:23:36;1005.19;;;30.71;83.10
37170;BME280;23062;13.952;100.608;2022-08-04T11:28:32;1005.32;;;30.77;81.84
37170;BME280;23062;13.952;100.608;2022-08-04T11:33:40;1005.45;;;30.78;81.10
37170;BME280;23062;13.952;100.608;2022-08-04T11:38:28;1005.58;;;30.72;81.01
37170;BME280;23062;13.952;100.608;2022-08-04T11:43:25;1005.66;;;30.70;81.33
37170;BME280;23062;13.952;100.608;2022-08-04T11:53:13;1005.60;;;30.67;82.21
37170;BME280;23062;13.952;100.608;2022-08-04T11:58:04;1005.65;;;30.62;82.11
37170;BME280;23062;13.952;100.608;2022-08-04T12:13:33;1005.78;;;30.72;81.28
37170;BME280;23062;13.952;100.608;2022-08-04T12:18:23;1005.79;;;30.72;81.18
37170;BME280;23062;13.952;100.608;2022-08-04T12:23:25;1005.87;;;30.75;81.46
37170;BME280;23062;13.952;100.608;2022-08-04T12:28:17;1005.98;;;30.70;82.27
37170;BME280;23062;13.952;100.608;2022-08-04T12:33:09;1006.00;;;30.73;82.75
37170;BME280;23062;13.952;100.608;2022-08-04T12:38:07;1006.09;;;30.71;83.24
37170;BME280;23062;13.952;100.608;2022-08-04T12:43:25;1006.12;;;30.70;83.64
37170;BME280;23062;13.952;100.608;2022-08-04T12:48:13;1006.16;;;30.64;84.42
37170;BME280;23062;13.952;100.608;2022-08-04T12:53:12;1006.25;;;30.57;84.72
37170;BME280;23062;13.952;100.608;2022-08-04T12:58:10;1006.44;;;30.65;84.41
37170;BME280;23062;13.952;100.608;2022-08-04T13:02:59;1006.53;;;30.87;82.49
37170;BME280;23062;13.952;100.608;2022-08-04T13:07:51;1006.66;;;30.92;83.23
37170;BME280;23062;13.952;100.608;2022-08-04T13:12:50;1006.79;;;30.96;82.69
37170;BME280;23062;13.952;100.608;2022-08-04T13:18:03;1006.79;;;30.90;83.04
37170;BME280;23062;13.952;100.608;2022-08-04T13:22:49;1006.96;;;30.96;82.74
37170;BME280;23062;13.952;100.608;2022-08-04T13:27:39;1006.99;;;30.94;82.90
37170;BME280;23062;13.952;100.608;2022-08-04T13:32:33;1007.15;;;30.98;82.85
37170;BME280;23062;13.952;100.608;2022-08-04T13:37:29;1007.33;;;30.99;82.55
37170;BME280;23062;13.952;100.608;2022-08-04T13:42:17;1007.49;;;30.98;82.14
37170;BME280;23062;13.952;100.608;2022-08-04T13:47:22;1007.54;;;30.96;82.26
37170;BME280;23062;13.952;100.608;2022-08-04T13:52:08;1007.63;;;30.97;82.48
37170;BME280;23062;13.952;100.608;2022-08-04T13:57:01;1007.72;;;30.97;82.66
37170;BME280;23062;13.952;100.608;2022-08-04T14:01:59;1007.76;;;30.96;83.16
37170;BME280;23062;13.952;100.608;2022-08-04T14:06:50;1007.74;;;30.94;83.31
37170;BME280;23062;13.952;100.608;2022-08-04T14:11:51;1007.80;;;30.94;83.41
37170;BME280;23062;13.952;100.608;2022-08-04T14:16:36;1007.78;;;30.94;83.40
37170;BME280;23062;13.952;100.608;2022-08-04T14:21:26;1007.77;;;30.96;83.88
37170;BME280;23062;13.952;100.608;2022-08-04T14:26:17;1007.78;;;30.96;83.44
37170;BME280;23062;13.952;100.608;2022-08-04T14:31:15;1007.79;;;30.95;83.11
37170;BME280;23062;13.952;100.608;2022-08-04T14:36:03;1007.78;;;30.95;83.96
37170;BME280;23062;13.952;100.608;2022-08-04T14:40:54;1007.87;;;30.95;84.48
37170;BME280;23062;13.952;100.608;2022-08-04T14:45:44;1007.95;;;30.94;84.93
37170;BME280;23062;13.952;100.608;2022-08-04T14:50:41;1007.97;;;30.92;84.11
37170;BME280;23062;13.952;100.608;2022-08-04T14:55:32;1007.97;;;30.91;84.15
37170;BME280;23062;13.952;100.608;2022-08-04T15:00:31;1008.03;;;30.91;84.21
37170;BME280;23062;13.952;100.608;2022-08-04T15:05:21;1008.05;;;30.93;83.94
37170;BME280;23062;13.952;100.608;2022-08-04T15:10:11;1008.07;;;30.90;84.34
37170;BME280;23062;13.952;100.608;2022-08-04T15:15:00;1008.16;;;30.90;84.21
37170;BME280;23062;13.952;100.608;2022-08-04T15:19:51;1008.18;;;30.88;84.02
37170;BME280;23062;13.952;100.608;2022-08-04T15:24:40;1008.06;;;30.87;83.90
37170;BME280;23062;13.952;100.608;2022-08-04T15:29:44;1008.14;;;30.90;84.20
37170;BME280;23062;13.952;100.608;2022-08-04T15:34:49;1008.17;;;30.88;84.30
37170;BME280;23062;13.952;100.608;2022-08-04T15:39:48;1008.21;;;30.88;84.85
37170;BME280;23062;13.952;100.608;2022-08-04T15:49:39;1008.27;;;30.87;84.83
37170;BME280;23062;13.952;100.608;2022-08-04T15:54:30;1008.24;;;30.87;85.40
37170;BME280;23062;13.952;100.608;2022-08-04T15:59:56;1008.16;;;30.87;85.52
37170;BME280;23062;13.952;100.608;2022-08-04T16:04:56;1008.20;;;30.86;85.70
37170;BME280;23062;13.952;100.608;2022-08-04T16:09:42;1008.23;;;30.86;85.96
37170;BME280;23062;13.952;100.608;2022-08-04T16:14:33;1008.23;;;30.85;86.95
37170;BME280;23062;13.952;100.608;2022-08-04T16:24:40;1008.13;;;30.81;88.74
37170;BME280;23062;13.952;100.608;2022-08-04T16:29:32;1008.09;;;30.81;88.89
37170;BME280;23062;13.952;100.608;2022-08-04T16:34:22;1008.09;;;30.79;89.31
37170;BME280;23062;13.952;100.608;2022-08-04T16:39:18;1008.02;;;30.76;89.80
37170;BME280;23062;13.952;100.608;2022-08-04T16:44:35;1007.94;;;30.78;90.53
37170;BME280;23062;13.952;100.608;2022-08-04T16:49:27;1007.89;;;30.75;91.37
37170;BME280;23062;13.952;100.608;2022-08-04T16:54:17;1007.90;;;30.78;91.09
37170;BME280;23062;13.952;100.608;2022-08-04T16:59:08;1007.85;;;30.75;91.50
37170;BME280;23062;13.952;100.608;2022-08-04T17:03:58;1007.94;;;30.73;91.47
37170;BME280;23062;13.952;100.608;2022-08-04T17:08:49;1007.95;;;30.76;91.13
37170;BME280;23062;13.952;100.608;2022-08-04T17:13:43;1007.92;;;30.75;91.17
37170;BME280;23062;13.952;100.608;2022-08-04T17:18:35;1007.90;;;30.73;91.44
37170;BME280;23062;13.952;100.608;2022-08-04T17:23:39;1007.77;;;30.74;91.41
37170;BME280;23062;13.952;100.608;2022-08-04T17:28:29;1007.68;;;30.71;92.02
37170;BME280;23062;13.952;100.608;2022-08-04T17:33:21;1007.67;;;30.72;91.55
37170;BME280;23062;13.952;100.608;2022-08-04T17:38:11;1007.58;;;30.72;91.52
37170;BME280;23062;13.952;100.608;2022-08-04T17:43:04;1007.45;;;30.70;91.52
37170;BME280;23062;13.952;100.608;2022-08-04T17:47:55;1007.37;;;30.70;91.31
37170;BME280;23062;13.952;100.608;2022-08-04T17:52:56;1007.29;;;30.70;90.74
37170;BME280;23062;13.952;100.608;2022-08-04T17:57:37;1007.05;;;30.62;90.80
37170;BME280;23062;13.952;100.608;2022-08-04T18:02:28;1007.16;;;30.67;91.32
37170;BME280;23062;13.952;100.608;2022-08-04T18:07:22;1007.15;;;30.66;91.55
37170;BME280;23062;13.952;100.608;2022-08-04T18:17:36;1007.06;;;30.64;90.90
37170;BME280;23062;13.952;100.608;2022-08-04T18:22:25;1007.07;;;30.65;90.47
37170;BME280;23062;13.952;100.608;2022-08-04T18:27:16;1006.96;;;30.60;90.44
37170;BME280;23062;13.952;100.608;2022-08-04T18:32:07;1007.01;;;30.61;90.70
37170;BME280;23062;13.952;100.608;2022-08-04T18:36:57;1006.86;;;30.62;90.56
37170;BME280;23062;13.952;100.608;2022-08-04T18:41:47;1006.85;;;30.60;90.31
37170;BME280;23062;13.952;100.608;2022-08-04T18:46:37;1006.80;;;30.58;90.50
37170;BME280;23062;13.952;100.608;2022-08-04T18:51:28;1006.68;;;30.54;90.83
37170;BME280;23062;13.952;100.608;2022-08-04T18:56:18;1006.68;;;30.55;90.89
37170;BME280;23062;13.952;100.608;2022-08-04T19:01:09;1006.69;;;30.54;90.50
37170;BME280;23062;13.952;100.608;2022-08-04T19:06:01;1006.62;;;30.54;90.17
37170;BME280;23062;13.952;100.608;2022-08-04T19:10:51;1006.55;;;30.53;89.88
37170;BME280;23062;13.952;100.608;2022-08-04T19:15:41;1006.54;;;30.53;90.16
37170;BME280;23062;13.952;100.608;2022-08-04T19:20:30;1006.47;;;30.50;90.37
37170;BME280;23062;13.952;100.608;2022-08-04T19:25:20;1006.34;;;30.51;90.29
37170;BME280;23062;13.952;100.608;2022-08-04T19:30:11;1006.31;;;30.49;91.01
37170;BME280;23062;13.952;100.608;2022-08-04T19:35:01;1006.22;;;30.46;91.55
37170;BME280;23062;13.952;100.608;2022-08-04T19:39:51;1006.19;;;30.47;91.62
37170;BME280;23062;13.952;100.608;2022-08-04T19:44:40;1006.18;;;30.44;92.08
37170;BME280;23062;13.952;100.608;2022-08-04T19:49:30;1006.19;;;30.44;92.50
37170;BME280;23062;13.952;100.608;2022-08-04T19:54:20;1006.04;;;30.42;92.59
37170;BME280;23062;13.952;100.608;2022-08-04T19:59:10;1006.10;;;30.40;92.38
37170;BME280;23062;13.952;100.608;2022-08-04T20:04:00;1006.21;;;30.46;91.60
37170;BME280;23062;13.952;100.608;2022-08-04T20:08:51;1006.23;;;30.45;92.33
37170;BME280;23062;13.952;100.608;2022-08-04T20:13:41;1006.20;;;30.46;92.24
37170;BME280;23062;13.952;100.608;2022-08-04T20:18:31;1006.11;;;30.46;92.81
37170;BME280;23062;13.952;100.608;2022-08-04T20:23:20;1006.12;;;30.40;92.85
37170;BME280;23062;13.952;100.608;2022-08-04T20:28:11;1006.10;;;30.16;95.36
37170;BME280;23062;13.952;100.608;2022-08-04T20:33:01;1006.08;;;30.12;96.36
37170;BME280;23062;13.952;100.608;2022-08-04T20:37:50;1006.12;;;30.10;97.10
37170;BME280;23062;13.952;100.608;2022-08-04T20:42:41;1006.20;;;30.10;97.38
37170;BME280;23062;13.952;100.608;2022-08-04T20:47:31;1006.14;;;30.09;97.72
37170;BME280;23062;13.952;100.608;2022-08-04T20:52:21;1006.19;;;30.08;97.89
37170;BME280;23062;13.952;100.608;2022-08-04T20:57:10;1006.20;;;30.07;98.21
37170;BME280;23062;13.952;100.608;2022-08-04T21:02:00;1006.13;;;30.07;98.35
37170;BME280;23062;13.952;100.608;2022-08-04T21:06:50;1006.07;;;30.06;98.75
37170;BME280;23062;13.952;100.608;2022-08-04T21:11:40;1006.11;;;30.04;99.04
37170;BME280;23062;13.952;100.608;2022-08-04T21:16:33;1006.22;;;30.05;98.89
37170;BME280;23062;13.952;100.608;2022-08-04T21:21:22;1006.20;;;30.04;99.07
37170;BME280;23062;13.952;100.608;2022-08-04T21:26:20;1006.18;;;30.04;99.24
37170;BME280;23062;13.952;100.608;2022-08-04T21:31:04;1006.15;;;30.05;99.00
37170;BME280;23062;13.952;100.608;2022-08-04T21:35:55;1006.05;;;30.01;98.81
37170;BME280;23062;13.952;100.608;2022-08-04T21:40:55;1005.92;;;29.91;99.18
37170;BME280;23062;13.952;100.608;2022-08-04T21:45:46;1005.89;;;29.77;97.59
37170;BME280;23062;13.952;100.608;2022-08-04T21:50:35;1005.94;;;29.72;96.28
37170;BME280;23062;13.952;100.608;2022-08-04T21:55:26;1005.90;;;29.67;95.66
37170;BME280;23062;13.952;100.608;2022-08-04T22:00:17;1005.93;;;29.64;94.52
37170;BME280;23062;13.952;100.608;2022-08-04T22:05:09;1005.85;;;29.59;93.60
37170;BME280;23062;13.952;100.608;2022-08-04T22:09:58;1005.73;;;29.53;92.01
37170;BME280;23062;13.952;100.608;2022-08-04T22:14:48;1005.74;;;29.63;90.46
37170;BME280;23062;13.952;100.608;2022-08-04T22:19:38;1005.82;;;29.56;91.36
37170;BME280;23062;13.952;100.608;2022-08-04T22:24:27;1005.83;;;29.56;90.85
37170;BME280;23062;13.952;100.608;2022-08-04T22:29:17;1005.92;;;29.61;91.35
37170;BME280;23062;13.952;100.608;2022-08-04T22:34:07;1005.90;;;29.71;92.40
37170;BME280;23062;13.952;100.608;2022-08-04T22:38:57;1005.95;;;29.73;92.35
37170;BME280;23062;13.952;100.608;2022-08-04T22:43:47;1006.05;;;29.78;91.75
37170;BME280;23062;13.952;100.608;2022-08-04T22:48:38;1006.11;;;29.91;89.59
37170;BME280;23062;13.952;100.608;2022-08-04T22:53:28;1006.06;;;29.95;87.64
37170;BME280;23062;13.952;100.608;2022-08-04T22:58:18;1006.05;;;29.96;87.07
37170;BME280;23062;13.952;100.608;2022-08-04T23:03:08;1006.10;;;29.96;86.65
37170;BME280;23062;13.952;100.608;2022-08-04T23:08:00;1006.11;;;29.94;87.19
37170;BME280;23062;13.952;100.608;2022-08-04T23:12:49;1006.24;;;29.87;87.35
37170;BME280;23062;13.952;100.608;2022-08-04T23:17:40;1006.31;;;29.93;87.24
37170;BME280;23062;13.952;100.608;2022-08-04T23:22:33;1006.29;;;29.88;87.20
37170;BME280;23062;13.952;100.608;2022-08-04T23:27:23;1006.28;;;29.92;87.04
37170;BME280;23062;13.952;100.608;2022-08-04T23:32:13;1006.40;;;29.89;88.75
37170;BME280;23062;13.952;100.608;2022-08-04T23:37:03;1006.49;;;29.86;89.43
37170;BME280;23062;13.952;100.608;2022-08-04T23:41:52;1006.50;;;29.83;89.45
37170;BME280;23062;13.952;100.608;2022-08-04T23:46:43;1006.62;;;29.87;89.33
37170;BME280;23062;13.952;100.608;2022-08-04T23:51:33;1006.75;;;29.84;89.10
37170;BME280;23062;13.952;100.608;2022-08-04T23:56:23;1006.90;;;29.81;89.11
